sensor_id;sensor_type;location;lat;lon;timestamp;pressure;altitude;pressure_sealevel;temperature;humidity
51229;BME280;37304;52.216;6.874;2023-02-20T00:02:50;102225.75;;;4.18;100.00
51229;BME280;37304;52.216;6.874;2023-02-20T00:07:50;102231.94;;;4.23;100.00
51229;BME280;37304;52.216;6.874;2023-02-20T00:12:51;102226.75;;;4.21;100.00
51229;BME280;37304;52.216;6.874;2023-02-20T00:17:52;102224.19;;;4.23;100.00
51229;BME280;37304;52.216;6.874;2023-02-20T00:22:53;102213.06;;;4.22;100.00
51229;BME280;37304;52.216;6.874;2023-02-20T00:27:54;102200.38;;;4.29;100.00
51229;BME280;37304;52.216;6.874;2023-02-20T00:32:55;102180.91;;;4.37;100.00
51229;BME280;37304;52.216;6.874;2023-02-20T00:37:55;102158.06;;;4.48;100.00
51229;BME280;37304;52.216;6.874;2023-02-20T00:42:56;102156.31;;;4.47;100.00
51229;BME280;37304;52.216;6.874;2023-02-20T00:47:56;102152.09;;;4.49;100.00
51229;BME280;37304;52.216;6.874;2023-02-20T00:52:56;102125.78;;;4.59;100.00
51229;BME280;37304;52.216;6.874;2023-02-20T00:57:57;102119.00;;;4.63;100.00
51229;BME280;37304;52.216;6.874;2023-02-20T01:02:57;102105.50;;;4.70;100.00
51229;BME280;37304;52.216;6.874;2023-02-20T01:07:58;102099.63;;;4.76;100.00
51229;BME280;37304;52.216;6.874;2023-02-20T01:12:58;102104.03;;;4.80;100.00
51229;BME280;37304;52.216;6.874;2023-02-20T01:17:58;102099.78;;;4.82;100.00
51229;BME280;37304;52.216;6.874;2023-02-20T01:22:59;102088.56;;;4.80;100.00
51229;BME280;37304;52.216;6.874;2023-02-20T01:27:59;102081.69;;;4.79;100.00
51229;BME280;37304;52.216;6.874;2023-02-20T01:32:59;102070.69;;;4.85;100.00
51229;BME280;37304;52.216;6.874;2023-02-20T01:38:00;102050.81;;;4.80;100.00
51229;BME280;37304;52.216;6.874;2023-02-20T01:43:05;102042.94;;;4.74;100.00
51229;BME280;37304;52.216;6.874;2023-02-20T01:48:10;102038.38;;;4.64;100.00
51229;BME280;37304;52.216;6.874;2023-02-20T01:53:20;102025.31;;;4.58;100.00
51229;BME280;37304;52.216;6.874;2023-02-20T01:58:35;102016.50;;;4.49;100.00
51229;BME280;37304;52.216;6.874;2023-02-20T02:03:40;102005.03;;;4.38;100.00
51229;BME280;37304;52.216;6.874;2023-02-20T02:08:43;102014.31;;;4.31;100.00
51229;BME280;37304;52.216;6.874;2023-02-20T02:13:44;102008.13;;;4.26;100.00
51229;BME280;37304;52.216;6.874;2023-02-20T02:35:10;101990.09;;;4.25;100.00
51229;BME280;37304;52.216;6.874;2023-02-20T02:40:25;101979.66;;;4.20;100.00
51229;BME280;37304;52.216;6.874;2023-02-20T02:45:37;101972.81;;;4.20;100.00
51229;BME280;37304;52.216;6.874;2023-02-20T02:50:44;101964.19;;;4.18;100.00
51229;BME280;37304;52.216;6.874;2023-02-20T02:55:45;101963.31;;;4.18;100.00
51229;BME280;37304;52.216;6.874;2023-02-20T03:00:58;101950.41;;;4.16;100.00
51229;BME280;37304;52.216;6.874;2023-02-20T03:06:08;101960.72;;;4.18;100.00
51229;BME280;37304;52.216;6.874;2023-02-20T03:11:15;101949.66;;;4.20;100.00
51229;BME280;37304;52.216;6.874;2023-02-20T03:16:20;101945.53;;;4.26;100.00
51229;BME280;37304;52.216;6.874;2023-02-20T03:21:22;101946.44;;;4.28;100.00
51229;BME280;37304;52.216;6.874;2023-02-20T03:26:30;101937.13;;;4.33;100.00
51229;BME280;37304;52.216;6.874;2023-02-20T03:31:33;101946.75;;;4.39;100.00
51229;BME280;37304;52.216;6.874;2023-02-20T03:36:44;101948.41;;;4.38;100.00
51229;BME280;37304;52.216;6.874;2023-02-20T03:42:07;101950.16;;;4.39;100.00
51229;BME280;37304;52.216;6.874;2023-02-20T03:47:28;101948.47;;;4.40;100.00
51229;BME280;37304;52.216;6.874;2023-02-20T03:52:30;101958.94;;;4.46;100.00
51229;BME280;37304;52.216;6.874;2023-02-20T03:57:33;101945.31;;;4.50;100.00
51229;BME280;37304;52.216;6.874;2023-02-20T04:02:39;101947.16;;;4.56;100.00
51229;BME280;37304;52.216;6.874;2023-02-20T04:07:46;101929.19;;;4.57;100.00
51229;BME280;37304;52.216;6.874;2023-02-20T04:12:49;101925.03;;;4.62;100.00
51229;BME280;37304;52.216;6.874;2023-02-20T04:17:58;101917.38;;;4.65;100.00
51229;BME280;37304;52.216;6.874;2023-02-20T04:23:07;101922.53;;;4.65;100.00
51229;BME280;37304;52.216;6.874;2023-02-20T04:28:09;101916.69;;;4.71;100.00
51229;BME280;37304;52.216;6.874;2023-02-20T04:33:11;101905.47;;;4.69;100.00
51229;BME280;37304;52.216;6.874;2023-02-20T04:38:12;101896.09;;;4.73;100.00
51229;BME280;37304;52.216;6.874;2023-02-20T04:43:13;101892.75;;;4.77;100.00
51229;BME280;37304;52.216;6.874;2023-02-20T04:48:13;101901.41;;;4.79;100.00
51229;BME280;37304;52.216;6.874;2023-02-20T04:53:14;101904.03;;;4.80;100.00
51229;BME280;37304;52.216;6.874;2023-02-20T04:58:14;101893.88;;;4.87;100.00
51229;BME280;37304;52.216;6.874;2023-02-20T05:03:15;101887.91;;;4.89;100.00
51229;BME280;37304;52.216;6.874;2023-02-20T05:08:15;101900.00;;;4.93;100.00
51229;BME280;37304;52.216;6.874;2023-02-20T05:13:15;101904.38;;;4.96;100.00
51229;BME280;37304;52.216;6.874;2023-02-20T05:18:29;101893.31;;;5.00;100.00
51229;BME280;37304;52.216;6.874;2023-02-20T05:23:29;101895.06;;;5.01;100.00
51229;BME280;37304;52.216;6.874;2023-02-20T05:28:30;101890.84;;;5.05;100.00
51229;BME280;37304;52.216;6.874;2023-02-20T05:33:30;101906.47;;;5.11;100.00
51229;BME280;37304;52.216;6.874;2023-02-20T05:38:32;101897.06;;;5.15;100.00
51229;BME280;37304;52.216;6.874;2023-02-20T05:43:32;101893.72;;;5.19;100.00
51229;BME280;37304;52.216;6.874;2023-02-20T05:48:33;101887.78;;;5.21;100.00
51229;BME280;37304;52.216;6.874;2023-02-20T05:53:33;101893.94;;;5.28;100.00
51229;BME280;37304;52.216;6.874;2023-02-20T05:58:33;101888.00;;;5.31;100.00
51229;BME280;37304;52.216;6.874;2023-02-20T06:03:34;101876.06;;;5.36;100.00
51229;BME280;37304;52.216;6.874;2023-02-20T06:08:35;101870.06;;;5.37;100.00
51229;BME280;37304;52.216;6.874;2023-02-20T06:13:35;101855.56;;;5.42;100.00
51229;BME280;37304;52.216;6.874;2023-02-20T06:18:40;101856.47;;;5.44;100.00
51229;BME280;37304;52.216;6.874;2023-02-20T06:23:43;101848.03;;;5.51;100.00
51229;BME280;37304;52.216;6.874;2023-02-20T06:28:46;101856.72;;;5.55;100.00
51229;BME280;37304;52.216;6.874;2023-02-20T06:33:49;101861.03;;;5.58;100.00
51229;BME280;37304;52.216;6.874;2023-02-20T06:38:50;101855.16;;;5.63;100.00
51229;BME280;37304;52.216;6.874;2023-02-20T06:43:51;101855.19;;;5.65;100.00
51229;BME280;37304;52.216;6.874;2023-02-20T06:48:53;101853.59;;;5.72;100.00
51229;BME280;37304;52.216;6.874;2023-02-20T06:53:54;101857.91;;;5.73;100.00
51229;BME280;37304;52.216;6.874;2023-02-20T06:58:55;101853.75;;;5.79;100.00
51229;BME280;37304;52.216;6.874;2023-02-20T07:03:57;101849.50;;;5.81;100.00
51229;BME280;37304;52.216;6.874;2023-02-20T07:08:57;101850.44;;;5.87;100.00
51229;BME280;37304;52.216;6.874;2023-02-20T07:13:57;101845.41;;;5.93;100.00
51229;BME280;37304;52.216;6.874;2023-02-20T07:18:58;101834.25;;;5.95;100.00
51229;BME280;37304;52.216;6.874;2023-02-20T07:23:58;101820.59;;;6.00;100.00
51229;BME280;37304;52.216;6.874;2023-02-20T07:28:59;101827.59;;;6.05;100.00
51229;BME280;37304;52.216;6.874;2023-02-20T07:34:02;101836.28;;;6.09;100.00
51229;BME280;37304;52.216;6.874;2023-02-20T07:39:03;101846.66;;;6.14;100.00
51229;BME280;37304;52.216;6.874;2023-02-20T07:44:05;101840.69;;;6.16;100.00
51229;BME280;37304;52.216;6.874;2023-02-20T07:49:06;101847.63;;;6.19;100.00
51229;BME280;37304;52.216;6.874;2023-02-20T07:54:06;101840.03;;;6.26;100.00
51229;BME280;37304;52.216;6.874;2023-02-20T07:59:06;101835.78;;;6.30;100.00
51229;BME280;37304;52.216;6.874;2023-02-20T08:04:09;101822.03;;;6.33;100.00
51229;BME280;37304;52.216;6.874;2023-02-20T08:09:09;101830.78;;;6.39;100.00
51229;BME280;37304;52.216;6.874;2023-02-20T08:14:12;101815.38;;;6.46;100.00
51229;BME280;37304;52.216;6.874;2023-02-20T08:19:12;101826.59;;;6.48;100.00
51229;BME280;37304;52.216;6.874;2023-02-20T08:24:13;101818.97;;;6.55;100.00
51229;BME280;37304;52.216;6.874;2023-02-20T08:29:14;101812.16;;;6.59;100.00
51229;BME280;37304;52.216;6.874;2023-02-20T08:34:15;101805.34;;;6.64;100.00
51229;BME280;37304;52.216;6.874;2023-02-20T08:39:15;101801.09;;;6.69;100.00
51229;BME280;37304;52.216;6.874;2023-02-20T08:44:15;101801.16;;;6.73;100.00
51229;BME280;37304;52.216;6.874;2023-02-20T08:49:16;101796.06;;;6.77;100.00
51229;BME280;37304;52.216;6.874;2023-02-20T08:54:17;101803.00;;;6.81;100.00
51229;BME280;37304;52.216;6.874;2023-02-20T08:59:17;101796.16;;;6.83;100.00
51229;BME280;37304;52.216;6.874;2023-02-20T09:04:18;101804.78;;;6.85;100.00
51229;BME280;37304;52.216;6.874;2023-02-20T09:09:20;101800.47;;;6.86;100.00
51229;BME280;37304;52.216;6.874;2023-02-20T09:14:20;101791.09;;;6.93;100.00
51229;BME280;37304;52.216;6.874;2023-02-20T09:19:21;101790.38;;;7.02;100.00
51229;BME280;37304;52.216;6.874;2023-02-20T09:24:23;101786.97;;;7.06;100.00
51229;BME280;37304;52.216;6.874;2023-02-20T09:29:23;101775.81;;;7.11;100.00
51229;BME280;37304;52.216;6.874;2023-02-20T09:34:24;101778.50;;;7.16;100.00
51229;BME280;37304;52.216;6.874;2023-02-20T09:39:25;101770.78;;;7.19;100.00
51229;BME280;37304;52.216;6.874;2023-02-20T09:49:39;101784.66;;;7.27;100.00
51229;BME280;37304;52.216;6.874;2023-02-20T09:54:42;101797.59;;;7.27;100.00
51229;BME280;37304;52.216;6.874;2023-02-20T09:59:59;101807.09;;;7.30;100.00
51229;BME280;37304;52.216;6.874;2023-02-20T10:05:06;101820.97;;;7.35;100.00
51229;BME280;37304;52.216;6.874;2023-02-20T10:10:30;101810.56;;;7.31;100.00
51229;BME280;37304;52.216;6.874;2023-02-20T10:15:47;101807.88;;;7.24;100.00
51229;BME280;37304;52.216;6.874;2023-02-20T10:21:11;101820.91;;;7.31;100.00
51229;BME280;37304;52.216;6.874;2023-02-20T10:26:22;101825.25;;;7.35;100.00
51229;BME280;37304;52.216;6.874;2023-02-20T10:31:37;101833.91;;;7.37;100.00
51229;BME280;37304;52.216;6.874;2023-02-20T10:36:47;101833.97;;;7.41;100.00
51229;BME280;37304;52.216;6.874;2023-02-20T10:42:05;101847.69;;;7.36;100.00
51229;BME280;37304;52.216;6.874;2023-02-20T10:47:15;101836.47;;;7.35;100.00
51229;BME280;37304;52.216;6.874;2023-02-20T10:52:28;101817.56;;;7.39;100.00
51229;BME280;37304;52.216;6.874;2023-02-20T10:57:39;101814.97;;;7.41;100.00
51229;BME280;37304;52.216;6.874;2023-02-20T11:02:45;101808.19;;;7.48;100.00
51229;BME280;37304;52.216;6.874;2023-02-20T11:07:50;101800.41;;;7.49;100.00
51229;BME280;37304;52.216;6.874;2023-02-20T11:12:55;101783.22;;;7.53;100.00
51229;BME280;37304;52.216;6.874;2023-02-20T11:17:58;101778.91;;;7.53;100.00
51229;BME280;37304;52.216;6.874;2023-02-20T11:22:59;101765.19;;;7.59;100.00
51229;BME280;37304;52.216;6.874;2023-02-20T11:33:18;101795.38;;;7.60;100.00
51229;BME280;37304;52.216;6.874;2023-02-20T11:48:20;101776.31;;;7.53;100.00
51229;BME280;37304;52.216;6.874;2023-02-20T11:53:23;101791.91;;;7.58;100.00
51229;BME280;37304;52.216;6.874;2023-02-20T11:58:25;101794.50;;;7.58;100.00
51229;BME280;37304;52.216;6.874;2023-02-20T12:03:28;101791.03;;;7.57;100.00
51229;BME280;37304;52.216;6.874;2023-02-20T12:08:48;101793.66;;;7.62;100.00
51229;BME280;37304;52.216;6.874;2023-02-20T12:13:55;101804.84;;;7.60;100.00
51229;BME280;37304;52.216;6.874;2023-02-20T12:45:02;101782.38;;;7.55;100.00
51229;BME280;37304;52.216;6.874;2023-02-20T13:01:18;101780.75;;;7.62;100.00
51229;BME280;37304;52.216;6.874;2023-02-20T13:07:14;101779.84;;;7.62;100.00
51229;BME280;37304;52.216;6.874;2023-02-20T13:12:10;101768.59;;;7.56;100.00
51229;BME280;37304;52.216;6.874;2023-02-20T13:17:24;101753.03;;;7.52;100.00
51229;BME280;37304;52.216;6.874;2023-02-20T13:22:28;101762.50;;;7.51;100.00
51229;BME280;37304;52.216;6.874;2023-02-20T13:27:30;101762.59;;;7.59;100.00
51229;BME280;37304;52.216;6.874;2023-02-20T13:32:31;101751.41;;;7.60;100.00
51229;BME280;37304;52.216;6.874;2023-02-20T13:42:36;101729.09;;;7.70;100.00
51229;BME280;37304;52.216;6.874;2023-02-20T13:47:37;101721.31;;;7.70;100.00
51229;BME280;37304;52.216;6.874;2023-02-20T13:52:41;101715.28;;;7.72;100.00
51229;BME280;37304;52.216;6.874;2023-02-20T13:57:54;101723.09;;;7.79;100.00
51229;BME280;37304;52.216;6.874;2023-02-20T14:02:55;101716.25;;;7.84;100.00
51229;BME280;37304;52.216;6.874;2023-02-20T14:07:57;101700.75;;;7.87;100.00
51229;BME280;37304;52.216;6.874;2023-02-20T14:13:03;101684.38;;;7.86;100.00
51229;BME280;37304;52.216;6.874;2023-02-20T14:18:14;101670.56;;;7.87;100.00
51229;BME280;37304;52.216;6.874;2023-02-20T14:23:19;101674.03;;;7.90;100.00
51229;BME280;37304;52.216;6.874;2023-02-20T14:28:21;101665.41;;;7.92;100.00
51229;BME280;37304;52.216;6.874;2023-02-20T14:33:27;101677.50;;;7.93;100.00
51229;BME280;37304;52.216;6.874;2023-02-20T14:43:34;101680.16;;;7.99;100.00
51229;BME280;37304;52.216;6.874;2023-02-20T14:48:36;101675.84;;;8.03;100.00
51229;BME280;37304;52.216;6.874;2023-02-20T14:53:37;101657.72;;;7.98;100.00
51229;BME280;37304;52.216;6.874;2023-02-20T14:58:38;101656.88;;;8.02;100.00
51229;BME280;37304;52.216;6.874;2023-02-20T15:03:38;101653.41;;;8.02;100.00
51229;BME280;37304;52.216;6.874;2023-02-20T15:08:39;101665.50;;;8.03;100.00
51229;BME280;37304;52.216;6.874;2023-02-20T15:13:40;101670.66;;;8.00;100.00
51229;BME280;37304;52.216;6.874;2023-02-20T15:18:43;101656.00;;;7.97;100.00
51229;BME280;37304;52.216;6.874;2023-02-20T15:23:44;101641.34;;;8.01;100.00
51229;BME280;37304;52.216;6.874;2023-02-20T15:28:45;101649.94;;;8.00;100.00
51229;BME280;37304;52.216;6.874;2023-02-20T15:33:49;101656.88;;;8.01;100.00
51229;BME280;37304;52.216;6.874;2023-02-20T15:38:54;101659.47;;;8.02;100.00
51229;BME280;37304;52.216;6.874;2023-02-20T15:43:55;101662.03;;;8.01;100.00
51229;BME280;37304;52.216;6.874;2023-02-20T15:48:55;101661.16;;;7.99;100.00
51229;BME280;37304;52.216;6.874;2023-02-20T15:53:57;101668.91;;;7.96;100.00
51229;BME280;37304;52.216;6.874;2023-02-20T15:59:04;101666.34;;;7.97;100.00
51229;BME280;37304;52.216;6.874;2023-02-20T16:04:09;101662.00;;;7.95;100.00
51229;BME280;37304;52.216;6.874;2023-02-20T16:09:10;101672.34;;;7.95;100.00
51229;BME280;37304;52.216;6.874;2023-02-20T16:14:14;101674.09;;;7.96;100.00
51229;BME280;37304;52.216;6.874;2023-02-20T16:19:20;101673.22;;;7.94;100.00
51229;BME280;37304;52.216;6.874;2023-02-20T16:24:20;101677.50;;;7.92;100.00
51229;BME280;37304;52.216;6.874;2023-02-20T16:29:27;101667.13;;;7.89;100.00
51229;BME280;37304;52.216;6.874;2023-02-20T16:34:31;101674.00;;;7.88;100.00
51229;BME280;37304;52.216;6.874;2023-02-20T16:39:32;101671.44;;;7.86;100.00
51229;BME280;37304;52.216;6.874;2023-02-20T16:44:35;101689.56;;;7.90;100.00
51229;BME280;37304;52.216;6.874;2023-02-20T16:49:37;101680.06;;;7.89;100.00
51229;BME280;37304;52.216;6.874;2023-02-20T16:54:38;101684.34;;;7.83;100.00
51229;BME280;37304;52.216;6.874;2023-02-20T16:59:40;101673.09;;;7.80;100.00
51229;BME280;37304;52.216;6.874;2023-02-20T17:04:40;101674.81;;;7.76;100.00
51229;BME280;37304;52.216;6.874;2023-02-20T17:09:41;101678.22;;;7.72;100.00
51229;BME280;37304;52.216;6.874;2023-02-20T17:14:41;101676.47;;;7.69;100.00
51229;BME280;37304;52.216;6.874;2023-02-20T17:19:42;101694.56;;;7.68;100.00
51229;BME280;37304;52.216;6.874;2023-02-20T17:24:43;101702.31;;;7.65;100.00
51229;BME280;37304;52.216;6.874;2023-02-20T17:29:44;101697.97;;;7.64;100.00
51229;BME280;37304;52.216;6.874;2023-02-20T17:34:45;101706.53;;;7.60;100.00
51229;BME280;37304;52.216;6.874;2023-02-20T17:39:45;101708.25;;;7.57;100.00
51229;BME280;37304;52.216;6.874;2023-02-20T17:44:48;101711.72;;;7.60;100.00
51229;BME280;37304;52.216;6.874;2023-02-20T17:49:50;101708.28;;;7.61;100.00
51229;BME280;37304;52.216;6.874;2023-02-20T17:54:52;101703.06;;;7.56;100.00
51229;BME280;37304;52.216;6.874;2023-02-20T17:59:55;101721.16;;;7.54;100.00
51229;BME280;37304;52.216;6.874;2023-02-20T18:04:55;101713.38;;;7.53;100.00
51229;BME280;37304;52.216;6.874;2023-02-20T18:09:56;101710.75;;;7.48;100.00
51229;BME280;37304;52.216;6.874;2023-02-20T18:14:56;101718.53;;;7.50;100.00
51229;BME280;37304;52.216;6.874;2023-02-20T18:19:57;101717.66;;;7.49;100.00
51229;BME280;37304;52.216;6.874;2023-02-20T18:24:57;101724.56;;;7.49;100.00
51229;BME280;37304;52.216;6.874;2023-02-20T18:29:57;101719.31;;;7.42;100.00
51229;BME280;37304;52.216;6.874;2023-02-20T18:34:58;101706.38;;;7.41;100.00
51229;BME280;37304;52.216;6.874;2023-02-20T18:39:58;101724.50;;;7.44;100.00
51229;BME280;37304;52.216;6.874;2023-02-20T18:44:58;101700.34;;;7.40;100.00
51229;BME280;37304;52.216;6.874;2023-02-20T18:49:59;101710.69;;;7.42;100.00
51229;BME280;37304;52.216;6.874;2023-02-20T18:54:59;101716.72;;;7.44;100.00
51229;BME280;37304;52.216;6.874;2023-02-20T19:00:00;101718.47;;;7.43;100.00
51229;BME280;37304;52.216;6.874;2023-02-20T19:05:00;101698.63;;;7.42;100.00
51229;BME280;37304;52.216;6.874;2023-02-20T19:10:02;101692.56;;;7.42;100.00
51229;BME280;37304;52.216;6.874;2023-02-20T19:15:05;101701.22;;;7.44;100.00
51229;BME280;37304;52.216;6.874;2023-02-20T19:20:13;101705.53;;;7.43;100.00
51229;BME280;37304;52.216;6.874;2023-02-20T19:25:16;101690.03;;;7.43;100.00
51229;BME280;37304;52.216;6.874;2023-02-20T19:30:17;101684.81;;;7.42;100.00
51229;BME280;37304;52.216;6.874;2023-02-20T19:35:19;101667.59;;;7.44;100.00
51229;BME280;37304;52.216;6.874;2023-02-20T19:40:20;101669.34;;;7.45;100.00
51229;BME280;37304;52.216;6.874;2023-02-20T19:45:20;101675.38;;;7.46;100.00
51229;BME280;37304;52.216;6.874;2023-02-20T19:50:21;101671.91;;;7.45;100.00
51229;BME280;37304;52.216;6.874;2023-02-20T19:55:23;101671.09;;;7.48;100.00
51229;BME280;37304;52.216;6.874;2023-02-20T20:00:23;101670.25;;;7.49;100.00
51229;BME280;37304;52.216;6.874;2023-02-20T20:05:24;101674.56;;;7.51;100.00
51229;BME280;37304;52.216;6.874;2023-02-20T20:10:24;101671.97;;;7.51;100.00
51229;BME280;37304;52.216;6.874;2023-02-20T20:15:27;101672.84;;;7.53;100.00
51229;BME280;37304;52.216;6.874;2023-02-20T20:20:29;101669.41;;;7.53;100.00
51229;BME280;37304;52.216;6.874;2023-02-20T20:25:31;101662.50;;;7.52;100.00
51229;BME280;37304;52.216;6.874;2023-02-20T20:30:32;101672.84;;;7.52;100.00
51229;BME280;37304;52.216;6.874;2023-02-20T20:35:35;101677.19;;;7.53;100.00
51229;BME280;37304;52.216;6.874;2023-02-20T20:40:36;101681.50;;;7.55;100.00
51229;BME280;37304;52.216;6.874;2023-02-20T20:45:36;101682.38;;;7.56;100.00
51229;BME280;37304;52.216;6.874;2023-02-20T20:50:38;101680.63;;;7.56;100.00
51229;BME280;37304;52.216;6.874;2023-02-20T20:55:38;101671.19;;;7.58;100.00
51229;BME280;37304;52.216;6.874;2023-02-20T21:00:38;101672.91;;;7.60;100.00
51229;BME280;37304;52.216;6.874;2023-02-20T21:05:39;101672.94;;;7.61;100.00
51229;BME280;37304;52.216;6.874;2023-02-20T21:10:39;101664.31;;;7.62;100.00
51229;BME280;37304;52.216;6.874;2023-02-20T21:15:40;101660.84;;;7.62;100.00
51229;BME280;37304;52.216;6.874;2023-02-20T21:20:40;101657.38;;;7.60;100.00
51229;BME280;37304;52.216;6.874;2023-02-20T21:25:40;101664.31;;;7.62;100.00
51229;BME280;37304;52.216;6.874;2023-02-20T21:30:41;101664.31;;;7.62;100.00
51229;BME280;37304;52.216;6.874;2023-02-20T21:35:41;101661.75;;;7.64;100.00
51229;BME280;37304;52.216;6.874;2023-02-20T21:40:42;101661.75;;;7.64;100.00
51229;BME280;37304;52.216;6.874;2023-02-20T21:45:42;101649.69;;;7.63;100.00
51229;BME280;37304;52.216;6.874;2023-02-20T21:50:43;101656.59;;;7.64;100.00
51229;BME280;37304;52.216;6.874;2023-02-20T21:55:44;101649.69;;;7.63;100.00
51229;BME280;37304;52.216;6.874;2023-02-20T22:00:44;101653.13;;;7.63;100.00
51229;BME280;37304;52.216;6.874;2023-02-20T22:05:45;101659.19;;;7.67;100.00
51229;BME280;37304;52.216;6.874;2023-02-20T22:10:45;101655.72;;;7.65;100.00
51229;BME280;37304;52.216;6.874;2023-02-20T22:16:04;101660.06;;;7.66;100.00
51229;BME280;37304;52.216;6.874;2023-02-20T22:21:23;101641.91;;;7.64;100.00
51229;BME280;37304;52.216;6.874;2023-02-20T22:26:42;101647.13;;;7.66;100.00
51229;BME280;37304;52.216;6.874;2023-02-20T22:32:01;101645.34;;;7.63;100.00
51229;BME280;37304;52.216;6.874;2023-02-20T22:37:20;101648.84;;;7.67;100.00
51229;BME280;37304;52.216;6.874;2023-02-20T22:42:39;101651.41;;;7.65;100.00
51229;BME280;37304;52.216;6.874;2023-02-20T22:47:58;101647.97;;;7.66;100.00
51229;BME280;37304;52.216;6.874;2023-02-20T22:53:17;101660.09;;;7.69;100.00
51229;BME280;37304;52.216;6.874;2023-02-20T22:58:36;101659.19;;;7.68;100.00
51229;BME280;37304;52.216;6.874;2023-02-20T23:03:55;101657.50;;;7.70;100.00
51229;BME280;37304;52.216;6.874;2023-02-20T23:09:14;101649.72;;;7.70;100.00
51229;BME280;37304;52.216;6.874;2023-02-20T23:14:33;101654.06;;;7.71;100.00
51229;BME280;37304;52.216;6.874;2023-02-20T23:19:52;101653.19;;;7.71;100.00
51229;BME280;37304;52.216;6.874;2023-02-20T23:25:11;101659.22;;;7.71;100.00
51229;BME280;37304;52.216;6.874;2023-02-20T23:30:30;101660.09;;;7.69;100.00
51229;BME280;37304;52.216;6.874;2023-02-20T23:35:49;101659.19;;;7.68;100.00
51229;BME280;37304;52.216;6.874;2023-02-20T23:41:08;101659.19;;;7.68;100.00
51229;BME280;37304;52.216;6.874;2023-02-20T23:46:27;101662.66;;;7.69;100.00
51229;BME280;37304;52.216;6.874;2023-02-20T23:51:46;101655.75;;;7.68;100.00
51229;BME280;37304;52.216;6.874;2023-02-20T23:57:05;101661.78;;;7.67;100.00
